sensor_id;sensor_type;location;lat;lon;timestamp;temperature;humidity
28761;DHT22;15917;50.014;8.352;2023-04-25T00:01:37;9.30;99.90
28761;DHT22;15917;50.014;8.352;2023-04-25T00:04:03;9.30;99.90
28761;DHT22;15917;50.014;8.352;2023-04-25T00:06:32;9.30;99.90
28761;DHT22;15917;50.014;8.352;2023-04-25T00:08:58;9.30;99.90
28761;DHT22;15917;50.014;8.352;2023-04-25T00:11:24;9.40;99.90
28761;DHT22;15917;50.014;8.352;2023-04-25T00:13:50;9.30;99.90
28761;DHT22;15917;50.014;8.352;2023-04-25T00:16:19;9.40;99.90
28761;DHT22;15917;50.014;8.352;2023-04-25T00:18:45;9.30;99.90
28761;DHT22;15917;50.014;8.352;2023-04-25T00:21:19;9.30;99.90
28761;DHT22;15917;50.014;8.352;2023-04-25T00:23:46;9.30;99.90
28761;DHT22;15917;50.014;8.352;2023-04-25T00:26:11;9.30;99.90
28761;DHT22;15917;50.014;8.352;2023-04-25T00:28:38;9.30;99.90
28761;DHT22;15917;50.014;8.352;2023-04-25T00:31:04;9.30;99.90
28761;DHT22;15917;50.014;8.352;2023-04-25T00:33:29;9.30;99.90
28761;DHT22;15917;50.014;8.352;2023-04-25T00:35:55;9.30;99.90
28761;DHT22;15917;50.014;8.352;2023-04-25T00:38:21;9.30;99.90
28761;DHT22;15917;50.014;8.352;2023-04-25T00:40:47;9.30;99.90
28761;DHT22;15917;50.014;8.352;2023-04-25T00:43:13;9.30;99.90
28761;DHT22;15917;50.014;8.352;2023-04-25T00:45:39;9.30;99.90
28761;DHT22;15917;50.014;8.352;2023-04-25T00:48:05;9.30;99.90
28761;DHT22;15917;50.014;8.352;2023-04-25T00:50:33;9.30;99.90
28761;DHT22;15917;50.014;8.352;2023-04-25T00:52:59;9.30;99.90
28761;DHT22;15917;50.014;8.352;2023-04-25T00:55:25;9.30;99.90
28761;DHT22;15917;50.014;8.352;2023-04-25T00:57:51;9.30;99.90
28761;DHT22;15917;50.014;8.352;2023-04-25T01:00:18;9.30;99.90
28761;DHT22;15917;50.014;8.352;2023-04-25T01:02:44;9.30;99.90
28761;DHT22;15917;50.014;8.352;2023-04-25T01:05:10;9.30;99.90
28761;DHT22;15917;50.014;8.352;2023-04-25T01:07:37;9.30;99.90
28761;DHT22;15917;50.014;8.352;2023-04-25T01:10:03;9.40;99.90
28761;DHT22;15917;50.014;8.352;2023-04-25T01:12:30;9.30;99.90
28761;DHT22;15917;50.014;8.352;2023-04-25T01:14:56;9.30;99.90
28761;DHT22;15917;50.014;8.352;2023-04-25T01:17:22;9.30;99.90
28761;DHT22;15917;50.014;8.352;2023-04-25T01:19:48;9.30;99.90
28761;DHT22;15917;50.014;8.352;2023-04-25T01:22:14;9.30;99.90
28761;DHT22;15917;50.014;8.352;2023-04-25T01:24:40;9.30;99.90
28761;DHT22;15917;50.014;8.352;2023-04-25T01:27:07;9.30;99.90
28761;DHT22;15917;50.014;8.352;2023-04-25T01:29:35;9.30;99.90
28761;DHT22;15917;50.014;8.352;2023-04-25T01:32:01;9.20;99.90
28761;DHT22;15917;50.014;8.352;2023-04-25T01:34:27;9.20;99.90
28761;DHT22;15917;50.014;8.352;2023-04-25T01:36:53;9.20;99.90
28761;DHT22;15917;50.014;8.352;2023-04-25T01:39:19;9.20;99.90
28761;DHT22;15917;50.014;8.352;2023-04-25T01:41:46;9.30;99.90
28761;DHT22;15917;50.014;8.352;2023-04-25T01:44:12;9.20;99.90
28761;DHT22;15917;50.014;8.352;2023-04-25T01:46:38;9.30;99.90
28761;DHT22;15917;50.014;8.352;2023-04-25T01:49:04;9.30;99.90
28761;DHT22;15917;50.014;8.352;2023-04-25T01:51:31;9.30;99.90
28761;DHT22;15917;50.014;8.352;2023-04-25T01:53:58;9.30;99.90
28761;DHT22;15917;50.014;8.352;2023-04-25T01:56:24;9.30;99.90
28761;DHT22;15917;50.014;8.352;2023-04-25T01:58:51;9.30;99.90
28761;DHT22;15917;50.014;8.352;2023-04-25T02:01:19;9.30;99.90
28761;DHT22;15917;50.014;8.352;2023-04-25T02:03:56;9.30;99.90
28761;DHT22;15917;50.014;8.352;2023-04-25T02:06:27;9.30;99.90
28761;DHT22;15917;50.014;8.352;2023-04-25T02:08:56;9.30;99.90
28761;DHT22;15917;50.014;8.352;2023-04-25T02:11:21;9.30;99.90
28761;DHT22;15917;50.014;8.352;2023-04-25T02:13:57;9.30;99.90
28761;DHT22;15917;50.014;8.352;2023-04-25T02:16:41;9.30;99.90
28761;DHT22;15917;50.014;8.352;2023-04-25T02:19:09;9.30;99.90
28761;DHT22;15917;50.014;8.352;2023-04-25T02:21:36;9.40;99.90
28761;DHT22;15917;50.014;8.352;2023-04-25T02:24:02;9.30;99.90
28761;DHT22;15917;50.014;8.352;2023-04-25T02:26:28;9.30;99.90
28761;DHT22;15917;50.014;8.352;2023-04-25T02:28:54;9.30;99.90
28761;DHT22;15917;50.014;8.352;2023-04-25T02:31:20;9.30;99.90
28761;DHT22;15917;50.014;8.352;2023-04-25T02:33:46;9.20;99.90
28761;DHT22;15917;50.014;8.352;2023-04-25T02:36:11;9.20;99.90
28761;DHT22;15917;50.014;8.352;2023-04-25T02:38:37;9.20;99.90
28761;DHT22;15917;50.014;8.352;2023-04-25T02:41:04;9.20;99.90
28761;DHT22;15917;50.014;8.352;2023-04-25T02:43:29;9.30;99.90
28761;DHT22;15917;50.014;8.352;2023-04-25T02:45:55;9.20;99.90
28761;DHT22;15917;50.014;8.352;2023-04-25T02:48:21;9.20;99.90
28761;DHT22;15917;50.014;8.352;2023-04-25T02:50:48;9.20;99.90
28761;DHT22;15917;50.014;8.352;2023-04-25T02:53:13;9.20;99.90
28761;DHT22;15917;50.014;8.352;2023-04-25T02:55:45;9.20;99.90
28761;DHT22;15917;50.014;8.352;2023-04-25T02:58:10;9.20;99.90
28761;DHT22;15917;50.014;8.352;2023-04-25T03:00:44;9.20;99.90
28761;DHT22;15917;50.014;8.352;2023-04-25T03:03:11;9.20;99.90
28761;DHT22;15917;50.014;8.352;2023-04-25T03:05:36;9.20;99.90
28761;DHT22;15917;50.014;8.352;2023-04-25T03:08:02;9.20;99.90
28761;DHT22;15917;50.014;8.352;2023-04-25T03:10:29;9.20;99.90
28761;DHT22;15917;50.014;8.352;2023-04-25T03:12:57;9.10;99.90
28761;DHT22;15917;50.014;8.352;2023-04-25T03:15:24;9.10;99.90
28761;DHT22;15917;50.014;8.352;2023-04-25T03:17:51;9.10;99.90
28761;DHT22;15917;50.014;8.352;2023-04-25T03:20:17;9.10;99.90
28761;DHT22;15917;50.014;8.352;2023-04-25T03:22:42;9.10;99.90
28761;DHT22;15917;50.014;8.352;2023-04-25T03:25:08;9.10;99.90
28761;DHT22;15917;50.014;8.352;2023-04-25T03:27:34;9.10;99.90
28761;DHT22;15917;50.014;8.352;2023-04-25T03:29:59;9.10;99.90
28761;DHT22;15917;50.014;8.352;2023-04-25T03:32:25;9.20;99.90
28761;DHT22;15917;50.014;8.352;2023-04-25T03:34:51;9.20;99.90
28761;DHT22;15917;50.014;8.352;2023-04-25T03:37:16;9.20;99.90
28761;DHT22;15917;50.014;8.352;2023-04-25T03:39:42;9.20;99.90
28761;DHT22;15917;50.014;8.352;2023-04-25T03:42:08;9.20;99.90
28761;DHT22;15917;50.014;8.352;2023-04-25T03:44:33;9.20;99.90
28761;DHT22;15917;50.014;8.352;2023-04-25T03:47:00;9.10;99.90
28761;DHT22;15917;50.014;8.352;2023-04-25T03:49:25;9.10;99.90
28761;DHT22;15917;50.014;8.352;2023-04-25T03:52:00;9.10;99.90
28761;DHT22;15917;50.014;8.352;2023-04-25T03:54:28;9.00;99.90
28761;DHT22;15917;50.014;8.352;2023-04-25T03:56:58;9.00;99.90
28761;DHT22;15917;50.014;8.352;2023-04-25T03:59:27;9.00;99.90
28761;DHT22;15917;50.014;8.352;2023-04-25T04:01:52;9.00;99.90
28761;DHT22;15917;50.014;8.352;2023-04-25T04:04:18;9.00;99.90
28761;DHT22;15917;50.014;8.352;2023-04-25T04:06:44;9.00;99.90
28761;DHT22;15917;50.014;8.352;2023-04-25T04:09:16;8.90;99.90
28761;DHT22;15917;50.014;8.352;2023-04-25T04:11:43;8.90;99.90
28761;DHT22;15917;50.014;8.352;2023-04-25T04:14:09;8.90;99.90
28761;DHT22;15917;50.014;8.352;2023-04-25T04:16:38;8.90;99.90
28761;DHT22;15917;50.014;8.352;2023-04-25T04:19:03;8.80;99.90
28761;DHT22;15917;50.014;8.352;2023-04-25T04:21:30;8.80;99.90
28761;DHT22;15917;50.014;8.352;2023-04-25T04:23:55;8.80;99.90
28761;DHT22;15917;50.014;8.352;2023-04-25T04:26:24;8.60;99.90
28761;DHT22;15917;50.014;8.352;2023-04-25T04:29:11;8.60;99.90
28761;DHT22;15917;50.014;8.352;2023-04-25T04:31:50;8.60;99.90
28761;DHT22;15917;50.014;8.352;2023-04-25T04:34:17;8.60;99.90
28761;DHT22;15917;50.014;8.352;2023-04-25T04:36:45;8.50;99.90
28761;DHT22;15917;50.014;8.352;2023-04-25T04:39:12;8.50;99.90
28761;DHT22;15917;50.014;8.352;2023-04-25T04:41:48;8.50;99.90
28761;DHT22;15917;50.014;8.352;2023-04-25T04:44:30;8.50;99.90
28761;DHT22;15917;50.014;8.352;2023-04-25T04:47:24;8.50;99.90
28761;DHT22;15917;50.014;8.352;2023-04-25T04:49:58;8.50;99.90
28761;DHT22;15917;50.014;8.352;2023-04-25T04:52:42;8.50;99.90
28761;DHT22;15917;50.014;8.352;2023-04-25T04:55:36;8.50;99.90
28761;DHT22;15917;50.014;8.352;2023-04-25T04:58:08;8.50;99.90
28761;DHT22;15917;50.014;8.352;2023-04-25T05:00:54;8.50;99.90
28761;DHT22;15917;50.014;8.352;2023-04-25T05:03:46;8.40;99.90
28761;DHT22;15917;50.014;8.352;2023-04-25T05:06:40;8.40;99.90
28761;DHT22;15917;50.014;8.352;2023-04-25T05:09:38;8.30;99.90
28761;DHT22;15917;50.014;8.352;2023-04-25T05:12:21;8.40;99.90
28761;DHT22;15917;50.014;8.352;2023-04-25T05:15:11;8.50;99.90
28761;DHT22;15917;50.014;8.352;2023-04-25T05:17:51;8.60;99.90
28761;DHT22;15917;50.014;8.352;2023-04-25T05:20:37;8.60;99.90
28761;DHT22;15917;50.014;8.352;2023-04-25T05:23:14;8.70;99.90
28761;DHT22;15917;50.014;8.352;2023-04-25T05:26:18;8.80;99.90
28761;DHT22;15917;50.014;8.352;2023-04-25T05:28:53;8.90;99.90
28761;DHT22;15917;50.014;8.352;2023-04-25T05:31:39;9.00;99.90
28761;DHT22;15917;50.014;8.352;2023-04-25T05:34:09;9.00;99.90
28761;DHT22;15917;50.014;8.352;2023-04-25T05:36:50;9.20;99.90
28761;DHT22;15917;50.014;8.352;2023-04-25T05:39:16;9.20;99.90
28761;DHT22;15917;50.014;8.352;2023-04-25T05:42:02;9.20;99.90
28761;DHT22;15917;50.014;8.352;2023-04-25T05:44:54;9.00;99.90
28761;DHT22;15917;50.014;8.352;2023-04-25T05:47:26;9.00;99.90
28761;DHT22;15917;50.014;8.352;2023-04-25T05:50:15;9.00;99.90
28761;DHT22;15917;50.014;8.352;2023-04-25T05:52:51;9.30;99.90
28761;DHT22;15917;50.014;8.352;2023-04-25T05:55:31;10.30;99.90
28761;DHT22;15917;50.014;8.352;2023-04-25T05:57:58;11.10;99.90
28761;DHT22;15917;50.014;8.352;2023-04-25T06:00:24;11.70;99.90
28761;DHT22;15917;50.014;8.352;2023-04-25T06:02:50;11.40;99.90
28761;DHT22;15917;50.014;8.352;2023-04-25T06:05:17;10.90;99.90
28761;DHT22;15917;50.014;8.352;2023-04-25T06:07:45;10.50;99.90
28761;DHT22;15917;50.014;8.352;2023-04-25T06:10:11;10.10;99.90
28761;DHT22;15917;50.014;8.352;2023-04-25T06:12:37;9.70;99.90
28761;DHT22;15917;50.014;8.352;2023-04-25T06:15:05;9.50;99.90
28761;DHT22;15917;50.014;8.352;2023-04-25T06:17:30;9.40;99.90
28761;DHT22;15917;50.014;8.352;2023-04-25T06:19:57;9.30;99.90
28761;DHT22;15917;50.014;8.352;2023-04-25T06:22:22;9.40;99.90
28761;DHT22;15917;50.014;8.352;2023-04-25T06:24:48;9.40;99.90
28761;DHT22;15917;50.014;8.352;2023-04-25T06:27:14;9.40;99.90
28761;DHT22;15917;50.014;8.352;2023-04-25T06:29:39;9.30;99.90
28761;DHT22;15917;50.014;8.352;2023-04-25T06:32:05;9.30;99.90
28761;DHT22;15917;50.014;8.352;2023-04-25T06:34:32;9.40;99.90
28761;DHT22;15917;50.014;8.352;2023-04-25T06:36:58;9.40;99.90
28761;DHT22;15917;50.014;8.352;2023-04-25T06:39:24;9.50;99.90
28761;DHT22;15917;50.014;8.352;2023-04-25T06:41:51;9.70;99.90
28761;DHT22;15917;50.014;8.352;2023-04-25T06:44:35;9.70;99.90
28761;DHT22;15917;50.014;8.352;2023-04-25T06:47:03;9.80;99.90
28761;DHT22;15917;50.014;8.352;2023-04-25T06:49:29;9.90;99.90
28761;DHT22;15917;50.014;8.352;2023-04-25T06:51:55;10.00;99.90
28761;DHT22;15917;50.014;8.352;2023-04-25T06:54:21;10.10;99.90
28761;DHT22;15917;50.014;8.352;2023-04-25T06:56:56;10.00;99.90
28761;DHT22;15917;50.014;8.352;2023-04-25T06:59:22;10.10;99.90
28761;DHT22;15917;50.014;8.352;2023-04-25T07:01:49;10.10;99.90
28761;DHT22;15917;50.014;8.352;2023-04-25T07:04:21;10.10;99.90
28761;DHT22;15917;50.014;8.352;2023-04-25T07:06:55;10.20;99.90
28761;DHT22;15917;50.014;8.352;2023-04-25T07:09:28;10.20;99.90
28761;DHT22;15917;50.014;8.352;2023-04-25T07:11:54;10.20;99.90
28761;DHT22;15917;50.014;8.352;2023-04-25T07:14:20;10.20;99.90
28761;DHT22;15917;50.014;8.352;2023-04-25T07:16:46;10.20;99.90
28761;DHT22;15917;50.014;8.352;2023-04-25T07:19:12;10.30;99.90
28761;DHT22;15917;50.014;8.352;2023-04-25T07:21:38;10.30;99.90
28761;DHT22;15917;50.014;8.352;2023-04-25T07:24:05;10.30;99.90
28761;DHT22;15917;50.014;8.352;2023-04-25T07:26:35;10.30;99.90
28761;DHT22;15917;50.014;8.352;2023-04-25T07:29:16;10.30;99.90
28761;DHT22;15917;50.014;8.352;2023-04-25T07:31:42;10.40;99.90
28761;DHT22;15917;50.014;8.352;2023-04-25T07:34:07;10.50;99.90
28761;DHT22;15917;50.014;8.352;2023-04-25T07:36:34;10.60;99.90
28761;DHT22;15917;50.014;8.352;2023-04-25T07:39:00;10.70;99.90
28761;DHT22;15917;50.014;8.352;2023-04-25T07:41:25;10.70;99.90
28761;DHT22;15917;50.014;8.352;2023-04-25T07:43:51;10.80;99.90
28761;DHT22;15917;50.014;8.352;2023-04-25T07:46:19;11.00;99.90
28761;DHT22;15917;50.014;8.352;2023-04-25T07:48:44;11.00;99.90
28761;DHT22;15917;50.014;8.352;2023-04-25T07:51:10;11.20;99.90
28761;DHT22;15917;50.014;8.352;2023-04-25T07:53:36;11.10;99.90
28761;DHT22;15917;50.014;8.352;2023-04-25T07:56:06;11.10;99.90
28761;DHT22;15917;50.014;8.352;2023-04-25T07:58:35;11.10;99.90
28761;DHT22;15917;50.014;8.352;2023-04-25T08:01:03;11.10;99.90
28761;DHT22;15917;50.014;8.352;2023-04-25T08:03:42;11.10;99.90
28761;DHT22;15917;50.014;8.352;2023-04-25T08:06:19;11.20;99.90
28761;DHT22;15917;50.014;8.352;2023-04-25T08:08:54;11.10;99.90
28761;DHT22;15917;50.014;8.352;2023-04-25T08:11:22;11.20;99.90
28761;DHT22;15917;50.014;8.352;2023-04-25T08:13:49;11.20;99.90
28761;DHT22;15917;50.014;8.352;2023-04-25T08:16:15;11.30;99.90
28761;DHT22;15917;50.014;8.352;2023-04-25T08:18:41;11.40;99.90
28761;DHT22;15917;50.014;8.352;2023-04-25T08:21:07;11.40;99.90
28761;DHT22;15917;50.014;8.352;2023-04-25T08:23:34;11.40;99.90
28761;DHT22;15917;50.014;8.352;2023-04-25T08:26:03;11.40;99.90
28761;DHT22;15917;50.014;8.352;2023-04-25T08:28:33;11.50;99.90
28761;DHT22;15917;50.014;8.352;2023-04-25T08:31:00;11.60;99.90
28761;DHT22;15917;50.014;8.352;2023-04-25T08:33:33;11.70;99.90
28761;DHT22;15917;50.014;8.352;2023-04-25T08:36:17;11.90;99.90
28761;DHT22;15917;50.014;8.352;2023-04-25T08:38:44;12.00;99.90
28761;DHT22;15917;50.014;8.352;2023-04-25T08:41:11;12.00;99.90
28761;DHT22;15917;50.014;8.352;2023-04-25T08:43:42;12.00;99.90
28761;DHT22;15917;50.014;8.352;2023-04-25T08:46:09;11.70;99.90
28761;DHT22;15917;50.014;8.352;2023-04-25T08:48:49;11.80;99.90
28761;DHT22;15917;50.014;8.352;2023-04-25T08:51:23;11.80;99.90
28761;DHT22;15917;50.014;8.352;2023-04-25T08:53:51;11.80;99.90
28761;DHT22;15917;50.014;8.352;2023-04-25T08:56:17;12.10;99.90
28761;DHT22;15917;50.014;8.352;2023-04-25T08:58:48;12.30;99.90
28761;DHT22;15917;50.014;8.352;2023-04-25T09:01:15;12.20;99.90
28761;DHT22;15917;50.014;8.352;2023-04-25T09:03:47;12.30;99.90
28761;DHT22;15917;50.014;8.352;2023-04-25T09:06:14;12.50;99.90
28761;DHT22;15917;50.014;8.352;2023-04-25T09:08:41;12.60;99.90
28761;DHT22;15917;50.014;8.352;2023-04-25T09:11:07;12.70;99.90
28761;DHT22;15917;50.014;8.352;2023-04-25T09:13:33;12.80;99.90
28761;DHT22;15917;50.014;8.352;2023-04-25T09:16:19;12.90;99.90
28761;DHT22;15917;50.014;8.352;2023-04-25T09:19:22;13.00;99.90
28761;DHT22;15917;50.014;8.352;2023-04-25T09:21:49;13.00;99.90
28761;DHT22;15917;50.014;8.352;2023-04-25T09:24:15;12.80;99.90
28761;DHT22;15917;50.014;8.352;2023-04-25T09:26:41;12.70;99.90
28761;DHT22;15917;50.014;8.352;2023-04-25T09:29:07;12.50;99.90
28761;DHT22;15917;50.014;8.352;2023-04-25T09:31:34;12.50;99.90
28761;DHT22;15917;50.014;8.352;2023-04-25T09:34:02;12.40;99.90
28761;DHT22;15917;50.014;8.352;2023-04-25T09:36:35;12.20;99.90
28761;DHT22;15917;50.014;8.352;2023-04-25T09:39:20;12.10;99.90
28761;DHT22;15917;50.014;8.352;2023-04-25T09:41:54;12.10;99.90
28761;DHT22;15917;50.014;8.352;2023-04-25T09:44:23;12.00;99.90
28761;DHT22;15917;50.014;8.352;2023-04-25T09:46:50;12.00;99.90
28761;DHT22;15917;50.014;8.352;2023-04-25T09:49:21;12.00;99.90
28761;DHT22;15917;50.014;8.352;2023-04-25T09:52:03;12.10;99.90
28761;DHT22;15917;50.014;8.352;2023-04-25T09:54:36;12.20;99.90
28761;DHT22;15917;50.014;8.352;2023-04-25T09:57:11;12.20;99.90
28761;DHT22;15917;50.014;8.352;2023-04-25T09:59:54;12.20;99.90
28761;DHT22;15917;50.014;8.352;2023-04-25T10:02:27;12.00;99.90
28761;DHT22;15917;50.014;8.352;2023-04-25T10:04:57;11.90;99.90
28761;DHT22;15917;50.014;8.352;2023-04-25T10:07:30;11.60;99.90
28761;DHT22;15917;50.014;8.352;2023-04-25T10:10:01;11.60;99.90
28761;DHT22;15917;50.014;8.352;2023-04-25T10:12:29;11.70;99.90
28761;DHT22;15917;50.014;8.352;2023-04-25T10:14:58;11.80;99.90
28761;DHT22;15917;50.014;8.352;2023-04-25T10:17:24;11.80;99.90
28761;DHT22;15917;50.014;8.352;2023-04-25T10:19:51;11.70;99.90
28761;DHT22;15917;50.014;8.352;2023-04-25T10:22:31;11.80;99.90
28761;DHT22;15917;50.014;8.352;2023-04-25T10:24:58;11.90;99.90
28761;DHT22;15917;50.014;8.352;2023-04-25T10:27:26;12.10;99.90
28761;DHT22;15917;50.014;8.352;2023-04-25T10:30:02;12.30;99.90
28761;DHT22;15917;50.014;8.352;2023-04-25T10:32:31;12.30;99.90
28761;DHT22;15917;50.014;8.352;2023-04-25T10:35:04;12.60;99.90
28761;DHT22;15917;50.014;8.352;2023-04-25T10:37:35;12.80;99.90
28761;DHT22;15917;50.014;8.352;2023-04-25T10:40:08;12.90;99.90
28761;DHT22;15917;50.014;8.352;2023-04-25T10:42:35;12.90;99.90
28761;DHT22;15917;50.014;8.352;2023-04-25T10:45:03;13.00;99.90
28761;DHT22;15917;50.014;8.352;2023-04-25T10:47:36;13.10;99.90
28761;DHT22;15917;50.014;8.352;2023-04-25T10:50:07;13.10;99.90
28761;DHT22;15917;50.014;8.352;2023-04-25T10:52:33;13.10;99.90
28761;DHT22;15917;50.014;8.352;2023-04-25T10:54:59;13.00;99.90
28761;DHT22;15917;50.014;8.352;2023-04-25T11:00:09;12.90;99.90
28761;DHT22;15917;50.014;8.352;2023-04-25T11:02:42;12.80;99.90
28761;DHT22;15917;50.014;8.352;2023-04-25T11:05:09;12.70;99.90
28761;DHT22;15917;50.014;8.352;2023-04-25T11:07:49;12.70;99.90
28761;DHT22;15917;50.014;8.352;2023-04-25T11:10:16;12.80;99.90
28761;DHT22;15917;50.014;8.352;2023-04-25T11:12:41;12.80;99.90
28761;DHT22;15917;50.014;8.352;2023-04-25T11:15:07;12.70;99.90
28761;DHT22;15917;50.014;8.352;2023-04-25T11:17:33;12.80;99.90
28761;DHT22;15917;50.014;8.352;2023-04-25T11:19:59;12.70;99.90
28761;DHT22;15917;50.014;8.352;2023-04-25T11:22:27;12.80;99.90
28761;DHT22;15917;50.014;8.352;2023-04-25T11:24:52;12.80;99.90
28761;DHT22;15917;50.014;8.352;2023-04-25T11:27:18;12.70;99.90
28761;DHT22;15917;50.014;8.352;2023-04-25T11:29:44;12.60;99.90
28761;DHT22;15917;50.014;8.352;2023-04-25T11:32:10;12.60;99.90
28761;DHT22;15917;50.014;8.352;2023-04-25T11:34:35;12.40;99.90
28761;DHT22;15917;50.014;8.352;2023-04-25T11:37:02;12.40;99.90
28761;DHT22;15917;50.014;8.352;2023-04-25T11:39:28;12.30;99.90
28761;DHT22;15917;50.014;8.352;2023-04-25T11:41:54;12.20;99.90
28761;DHT22;15917;50.014;8.352;2023-04-25T11:44:21;12.00;99.90
28761;DHT22;15917;50.014;8.352;2023-04-25T11:46:47;11.90;99.90
28761;DHT22;15917;50.014;8.352;2023-04-25T11:49:16;12.00;99.90
28761;DHT22;15917;50.014;8.352;2023-04-25T11:51:45;12.10;99.90
28761;DHT22;15917;50.014;8.352;2023-04-25T11:54:11;12.10;99.90
28761;DHT22;15917;50.014;8.352;2023-04-25T11:56:40;12.10;99.90
28761;DHT22;15917;50.014;8.352;2023-04-25T11:59:06;12.00;99.90
28761;DHT22;15917;50.014;8.352;2023-04-25T12:01:34;12.00;99.90
28761;DHT22;15917;50.014;8.352;2023-04-25T12:06:38;11.90;99.90
28761;DHT22;15917;50.014;8.352;2023-04-25T12:09:09;11.90;99.90
28761;DHT22;15917;50.014;8.352;2023-04-25T12:11:55;11.90;99.90
28761;DHT22;15917;50.014;8.352;2023-04-25T12:14:27;11.90;99.90
28761;DHT22;15917;50.014;8.352;2023-04-25T12:16:56;11.90;99.90
28761;DHT22;15917;50.014;8.352;2023-04-25T12:19:23;11.90;99.90
28761;DHT22;15917;50.014;8.352;2023-04-25T12:21:49;12.00;99.90
28761;DHT22;15917;50.014;8.352;2023-04-25T12:24:22;12.10;99.90
28761;DHT22;15917;50.014;8.352;2023-04-25T12:27:03;12.10;99.90
28761;DHT22;15917;50.014;8.352;2023-04-25T12:29:33;12.20;99.90
28761;DHT22;15917;50.014;8.352;2023-04-25T12:31:59;12.40;99.90
28761;DHT22;15917;50.014;8.352;2023-04-25T12:34:27;12.60;99.90
28761;DHT22;15917;50.014;8.352;2023-04-25T12:36:53;12.90;99.90
28761;DHT22;15917;50.014;8.352;2023-04-25T12:39:21;13.30;99.90
28761;DHT22;15917;50.014;8.352;2023-04-25T12:41:47;13.60;99.90
28761;DHT22;15917;50.014;8.352;2023-04-25T12:44:13;13.70;99.90
28761;DHT22;15917;50.014;8.352;2023-04-25T12:46:39;13.70;99.90
28761;DHT22;15917;50.014;8.352;2023-04-25T12:49:06;13.60;99.90
28761;DHT22;15917;50.014;8.352;2023-04-25T12:51:34;13.50;99.90
28761;DHT22;15917;50.014;8.352;2023-04-25T12:54:00;13.40;99.90
28761;DHT22;15917;50.014;8.352;2023-04-25T12:56:27;13.10;99.90
28761;DHT22;15917;50.014;8.352;2023-04-25T12:58:53;12.70;99.90
28761;DHT22;15917;50.014;8.352;2023-04-25T13:01:22;12.50;99.90
28761;DHT22;15917;50.014;8.352;2023-04-25T13:03:48;12.20;99.90
28761;DHT22;15917;50.014;8.352;2023-04-25T13:06:18;12.00;99.90
28761;DHT22;15917;50.014;8.352;2023-04-25T13:08:44;11.90;99.90
28761;DHT22;15917;50.014;8.352;2023-04-25T13:11:10;11.80;99.90
28761;DHT22;15917;50.014;8.352;2023-04-25T13:13:36;12.10;99.90
28761;DHT22;15917;50.014;8.352;2023-04-25T13:16:03;13.00;99.90
28761;DHT22;15917;50.014;8.352;2023-04-25T13:18:29;13.00;99.90
28761;DHT22;15917;50.014;8.352;2023-04-25T13:20:56;12.90;99.90
28761;DHT22;15917;50.014;8.352;2023-04-25T13:23:22;12.80;99.90
28761;DHT22;15917;50.014;8.352;2023-04-25T13:25:48;12.90;99.90
28761;DHT22;15917;50.014;8.352;2023-04-25T13:28:14;13.10;99.90
28761;DHT22;15917;50.014;8.352;2023-04-25T13:30:40;13.20;99.90
28761;DHT22;15917;50.014;8.352;2023-04-25T13:33:06;13.20;99.90
28761;DHT22;15917;50.014;8.352;2023-04-25T13:35:33;13.20;99.90
28761;DHT22;15917;50.014;8.352;2023-04-25T13:37:59;13.10;99.90
28761;DHT22;15917;50.014;8.352;2023-04-25T13:40:26;13.00;99.90
28761;DHT22;15917;50.014;8.352;2023-04-25T13:42:52;13.00;99.90
28761;DHT22;15917;50.014;8.352;2023-04-25T13:45:21;13.00;99.90
28761;DHT22;15917;50.014;8.352;2023-04-25T13:47:47;13.00;99.90
28761;DHT22;15917;50.014;8.352;2023-04-25T13:50:13;12.90;99.90
28761;DHT22;15917;50.014;8.352;2023-04-25T13:52:40;12.90;99.90
28761;DHT22;15917;50.014;8.352;2023-04-25T13:55:06;12.70;99.90
28761;DHT22;15917;50.014;8.352;2023-04-25T13:57:34;12.60;99.90
28761;DHT22;15917;50.014;8.352;2023-04-25T13:59:59;12.70;99.90
28761;DHT22;15917;50.014;8.352;2023-04-25T14:02:32;12.70;99.90
28761;DHT22;15917;50.014;8.352;2023-04-25T14:04:57;13.10;99.90
28761;DHT22;15917;50.014;8.352;2023-04-25T14:07:23;13.60;99.90
28761;DHT22;15917;50.014;8.352;2023-04-25T14:09:49;14.10;99.90
28761;DHT22;15917;50.014;8.352;2023-04-25T14:12:15;14.30;99.90
28761;DHT22;15917;50.014;8.352;2023-04-25T14:14:41;14.50;99.90
28761;DHT22;15917;50.014;8.352;2023-04-25T14:17:08;14.80;99.90
28761;DHT22;15917;50.014;8.352;2023-04-25T14:19:34;14.80;99.90
28761;DHT22;15917;50.014;8.352;2023-04-25T14:21:59;14.30;99.90
28761;DHT22;15917;50.014;8.352;2023-04-25T14:24:25;13.80;99.90
28761;DHT22;15917;50.014;8.352;2023-04-25T14:26:51;13.60;99.90
28761;DHT22;15917;50.014;8.352;2023-04-25T14:29:16;13.40;99.90
28761;DHT22;15917;50.014;8.352;2023-04-25T14:31:42;13.20;99.90
28761;DHT22;15917;50.014;8.352;2023-04-25T14:34:08;13.10;99.90
28761;DHT22;15917;50.014;8.352;2023-04-25T14:36:33;13.10;99.90
28761;DHT22;15917;50.014;8.352;2023-04-25T14:38:59;13.40;99.90
28761;DHT22;15917;50.014;8.352;2023-04-25T14:41:25;14.10;99.90
28761;DHT22;15917;50.014;8.352;2023-04-25T14:43:51;14.30;99.90
28761;DHT22;15917;50.014;8.352;2023-04-25T14:46:19;14.20;99.90
28761;DHT22;15917;50.014;8.352;2023-04-25T14:48:45;14.70;99.90
28761;DHT22;15917;50.014;8.352;2023-04-25T14:53:45;14.90;99.90
28761;DHT22;15917;50.014;8.352;2023-04-25T14:56:11;14.30;99.90
28761;DHT22;15917;50.014;8.352;2023-04-25T14:58:38;13.90;99.90
28761;DHT22;15917;50.014;8.352;2023-04-25T15:01:05;13.60;99.90
28761;DHT22;15917;50.014;8.352;2023-04-25T15:03:32;13.20;99.90
28761;DHT22;15917;50.014;8.352;2023-04-25T15:05:57;12.80;99.90
28761;DHT22;15917;50.014;8.352;2023-04-25T15:08:23;12.60;99.90
28761;DHT22;15917;50.014;8.352;2023-04-25T15:10:49;12.50;99.90
28761;DHT22;15917;50.014;8.352;2023-04-25T15:13:15;12.40;99.90
28761;DHT22;15917;50.014;8.352;2023-04-25T15:15:40;12.40;99.90
28761;DHT22;15917;50.014;8.352;2023-04-25T15:18:06;12.40;99.90
28761;DHT22;15917;50.014;8.352;2023-04-25T15:20:32;12.50;99.90
28761;DHT22;15917;50.014;8.352;2023-04-25T15:22:57;12.50;99.90
28761;DHT22;15917;50.014;8.352;2023-04-25T15:25:24;12.50;99.90
28761;DHT22;15917;50.014;8.352;2023-04-25T15:27:50;12.40;99.90
28761;DHT22;15917;50.014;8.352;2023-04-25T15:30:17;12.20;99.90
28761;DHT22;15917;50.014;8.352;2023-04-25T15:32:46;12.20;99.90
28761;DHT22;15917;50.014;8.352;2023-04-25T15:35:13;12.30;99.90
28761;DHT22;15917;50.014;8.352;2023-04-25T15:37:39;12.30;99.90
28761;DHT22;15917;50.014;8.352;2023-04-25T15:40:14;12.40;99.90
28761;DHT22;15917;50.014;8.352;2023-04-25T15:42:45;12.50;99.90
28761;DHT22;15917;50.014;8.352;2023-04-25T15:45:16;12.50;99.90
28761;DHT22;15917;50.014;8.352;2023-04-25T15:47:43;12.60;99.90
28761;DHT22;15917;50.014;8.352;2023-04-25T15:50:09;12.50;99.90
28761;DHT22;15917;50.014;8.352;2023-04-25T15:52:36;12.40;99.90
28761;DHT22;15917;50.014;8.352;2023-04-25T15:55:03;12.70;99.90
28761;DHT22;15917;50.014;8.352;2023-04-25T15:57:29;12.80;99.90